sensor_id;sensor_type;location;lat;lon;timestamp;pressure;altitude;pressure_sealevel;temperature;humidity
30714;BME280;17465;47.934;33.430;2023-02-13T00:02:15;57475.52;;;-140.43;72.62
30714;BME280;17465;47.934;33.430;2023-02-13T00:04:46;57445.87;;;-140.43;72.93
30714;BME280;17465;47.934;33.430;2023-02-13T00:07:16;57433.16;;;-140.43;72.30
30714;BME280;17465;47.934;33.430;2023-02-13T00:09:47;57446.93;;;-140.43;72.30
30714;BME280;17465;47.934;33.430;2023-02-13T00:12:18;57472.35;;;-140.43;72.67
30714;BME280;17465;47.934;33.430;2023-02-13T00:14:49;57467.05;;;-140.43;72.32
30714;BME280;17465;47.934;33.430;2023-02-13T00:17:19;57470.23;;;-140.43;72.27
30714;BME280;17465;47.934;33.430;2023-02-13T00:19:56;57442.69;;;-140.43;73.01
30714;BME280;17465;47.934;33.430;2023-02-13T00:22:53;57464.93;;;-140.43;72.08
30714;BME280;17465;47.934;33.430;2023-02-13T00:25:23;57464.93;;;-140.43;72.08
30714;BME280;17465;47.934;33.430;2023-02-13T00:27:54;57442.69;;;-140.43;72.58
30714;BME280;17465;47.934;33.430;2023-02-13T00:30:24;57442.69;;;-140.43;72.58
30714;BME280;17465;47.934;33.430;2023-02-13T00:32:55;57453.28;;;-140.43;72.04
30714;BME280;17465;47.934;33.430;2023-02-13T00:35:25;57477.64;;;-140.43;72.28
30714;BME280;17465;47.934;33.430;2023-02-13T00:37:56;57462.82;;;-140.43;71.89
30714;BME280;17465;47.934;33.430;2023-02-13T00:40:26;57442.69;;;-140.43;72.09
30714;BME280;17465;47.934;33.430;2023-02-13T00:42:56;57449.05;;;-140.43;72.12
30714;BME280;17465;47.934;33.430;2023-02-13T00:45:27;57446.93;;;-140.43;72.15
30714;BME280;17465;47.934;33.430;2023-02-13T00:47:57;57465.99;;;-140.43;72.41
30714;BME280;17465;47.934;33.430;2023-02-13T00:50:28;57465.99;;;-140.43;72.41
30714;BME280;17465;47.934;33.430;2023-02-13T00:52:58;57482.94;;;-140.43;72.68
30714;BME280;17465;47.934;33.430;2023-02-13T00:55:29;57482.94;;;-140.43;72.68
30714;BME280;17465;47.934;33.430;2023-02-13T00:58:00;57457.52;;;-140.43;72.40
30714;BME280;17465;47.934;33.430;2023-02-13T01:00:30;57441.63;;;-140.43;72.37
30714;BME280;17465;47.934;33.430;2023-02-13T01:03:01;57441.63;;;-140.43;72.37
30714;BME280;17465;47.934;33.430;2023-02-13T01:05:33;57464.93;;;-140.43;72.24
30714;BME280;17465;47.934;33.430;2023-02-13T01:08:04;57458.58;;;-140.43;72.55
30714;BME280;17465;47.934;33.430;2023-02-13T01:10:37;57488.23;;;-140.43;72.75
30714;BME280;17465;47.934;33.430;2023-02-13T01:13:08;57487.18;;;-140.43;72.68
30714;BME280;17465;47.934;33.430;2023-02-13T01:15:41;57455.40;;;-140.43;72.91
30714;BME280;17465;47.934;33.430;2023-02-13T01:18:14;57408.80;;;-140.43;73.31
30714;BME280;17465;47.934;33.430;2023-02-13T01:23:37;57447.99;;;-140.43;72.80
30714;BME280;17465;47.934;33.430;2023-02-13T01:26:10;57464.93;;;-140.43;72.89
30714;BME280;17465;47.934;33.430;2023-02-13T01:28:41;57480.82;;;-140.43;72.70
30714;BME280;17465;47.934;33.430;2023-02-13T01:34:04;57475.52;;;-140.43;72.84
30714;BME280;17465;47.934;33.430;2023-02-13T01:36:35;57457.52;;;-140.43;72.92
30714;BME280;17465;47.934;33.430;2023-02-13T01:39:05;57437.39;;;-140.43;72.65
30714;BME280;17465;47.934;33.430;2023-02-13T01:41:36;57455.40;;;-140.43;72.44
30714;BME280;17465;47.934;33.430;2023-02-13T01:47:21;57498.82;;;-140.43;73.09
30714;BME280;17465;47.934;33.430;2023-02-13T01:49:53;57498.82;;;-140.43;73.09
30714;BME280;17465;47.934;33.430;2023-02-13T01:52:23;57457.52;;;-140.43;72.94
30714;BME280;17465;47.934;33.430;2023-02-13T01:54:53;57496.71;;;-140.43;73.64
30714;BME280;17465;47.934;33.430;2023-02-13T01:57:26;57496.71;;;-140.43;73.64
30714;BME280;17465;47.934;33.430;2023-02-13T02:00:06;57476.58;;;-140.43;73.53
30714;BME280;17465;47.934;33.430;2023-02-13T02:02:40;57467.05;;;-140.43;73.78
30714;BME280;17465;47.934;33.430;2023-02-13T02:05:11;57461.76;;;-140.43;74.06
30714;BME280;17465;47.934;33.430;2023-02-13T02:07:43;57439.52;;;-140.43;74.14
30714;BME280;17465;47.934;33.430;2023-02-13T02:10:17;57451.16;;;-140.43;74.33
30714;BME280;17465;47.934;33.430;2023-02-13T02:13:06;57487.18;;;-140.43;74.16
30714;BME280;17465;47.934;33.430;2023-02-13T02:15:44;57487.18;;;-140.43;74.16
30714;BME280;17465;47.934;33.430;2023-02-13T02:18:17;57472.35;;;-140.43;74.11
30714;BME280;17465;47.934;33.430;2023-02-13T02:26:42;57464.93;;;-140.43;74.26
30714;BME280;17465;47.934;33.430;2023-02-13T02:29:43;57464.93;;;-140.43;74.26
30714;BME280;17465;47.934;33.430;2023-02-13T02:33:48;57432.10;;;-140.43;73.08
30714;BME280;17465;47.934;33.430;2023-02-13T02:35:32;57432.10;;;-140.43;73.08
30714;BME280;17465;47.934;33.430;2023-02-13T02:41:30;57450.11;;;-140.43;71.83
30714;BME280;17465;47.934;33.430;2023-02-13T02:46:55;56823.18;;;-140.43;72.16
30714;BME280;17465;47.934;33.430;2023-02-13T02:49:31;57485.05;;;-140.43;73.40
30714;BME280;17465;47.934;33.430;2023-02-13T02:52:09;57457.52;;;-140.43;74.54
30714;BME280;17465;47.934;33.430;2023-02-13T02:57:14;57468.11;;;-140.43;73.89
30714;BME280;17465;47.934;33.430;2023-02-13T02:59:46;57468.11;;;-140.43;73.89
30714;BME280;17465;47.934;33.430;2023-02-13T03:02:19;57481.88;;;-140.43;74.55
30714;BME280;17465;47.934;33.430;2023-02-13T03:04:52;57465.99;;;-140.43;75.36
30714;BME280;17465;47.934;33.430;2023-02-13T03:07:23;57492.47;;;-140.43;74.79
30714;BME280;17465;47.934;33.430;2023-02-13T03:10:03;57492.47;;;-140.43;74.79
30714;BME280;17465;47.934;33.430;2023-02-13T03:12:49;57479.76;;;-140.43;75.37
30714;BME280;17465;47.934;33.430;2023-02-13T03:15:27;57503.06;;;-140.43;75.42
30714;BME280;17465;47.934;33.430;2023-02-13T03:17:58;57503.06;;;-140.43;75.42
30714;BME280;17465;47.934;33.430;2023-02-13T03:20:51;57491.41;;;-140.43;73.84
30714;BME280;17465;47.934;33.430;2023-02-13T03:29:37;57504.12;;;-140.43;75.75
30714;BME280;17465;47.934;33.430;2023-02-13T03:32:25;57495.65;;;-140.43;76.66
30714;BME280;17465;47.934;33.430;2023-02-13T03:34:52;57495.65;;;-140.43;76.66
30714;BME280;17465;47.934;33.430;2023-02-13T03:37:29;57506.24;;;-140.43;76.59
30714;BME280;17465;47.934;33.430;2023-02-13T03:40:10;57491.41;;;-140.43;76.34
30714;BME280;17465;47.934;33.430;2023-02-13T03:42:41;57488.23;;;-140.43;77.14
30714;BME280;17465;47.934;33.430;2023-02-13T03:45:15;57488.23;;;-140.43;75.96
30714;BME280;17465;47.934;33.430;2023-02-13T03:47:48;57471.29;;;-140.43;75.80
30714;BME280;17465;47.934;33.430;2023-02-13T03:50:19;57471.29;;;-140.43;75.92
30714;BME280;17465;47.934;33.430;2023-02-13T03:55:48;57457.52;;;-140.43;75.82
30714;BME280;17465;47.934;33.430;2023-02-13T03:58:24;57487.18;;;-140.43;75.97
30714;BME280;17465;47.934;33.430;2023-02-13T04:00:56;57487.18;;;-140.43;75.97
30714;BME280;17465;47.934;33.430;2023-02-13T04:07:01;57481.88;;;-140.43;76.67
30714;BME280;17465;47.934;33.430;2023-02-13T04:09:09;57490.35;;;-140.43;76.25
30714;BME280;17465;47.934;33.430;2023-02-13T04:14:33;57468.11;;;-140.43;76.57
30714;BME280;17465;47.934;33.430;2023-02-13T04:22:47;57511.54;;;-140.43;76.79
30714;BME280;17465;47.934;33.430;2023-02-13T04:25:20;57496.71;;;-140.43;76.31
30714;BME280;17465;47.934;33.430;2023-02-13T04:27:50;57496.71;;;-140.43;76.31
30714;BME280;17465;47.934;33.430;2023-02-13T04:30:22;57460.70;;;-140.43;76.58
30714;BME280;17465;47.934;33.430;2023-02-13T04:32:53;57460.70;;;-140.43;76.58
30714;BME280;17465;47.934;33.430;2023-02-13T04:35:23;57514.71;;;-140.43;76.35
30714;BME280;17465;47.934;33.430;2023-02-13T04:37:54;57460.70;;;-140.43;76.94
30714;BME280;17465;47.934;33.430;2023-02-13T04:40:24;57499.88;;;-140.43;76.90
30714;BME280;17465;47.934;33.430;2023-02-13T04:42:56;57480.82;;;-140.43;76.79
30714;BME280;17465;47.934;33.430;2023-02-13T04:45:27;57452.23;;;-140.43;75.84
30714;BME280;17465;47.934;33.430;2023-02-13T04:47:58;57478.70;;;-140.43;75.64
30714;BME280;17465;47.934;33.430;2023-02-13T04:50:28;57468.11;;;-140.43;75.75
30714;BME280;17465;47.934;33.430;2023-02-13T04:52:59;57494.59;;;-140.43;76.02
30714;BME280;17465;47.934;33.430;2023-02-13T04:55:33;57502.00;;;-140.43;76.59
30714;BME280;17465;47.934;33.430;2023-02-13T04:58:04;57502.00;;;-140.43;76.59
30714;BME280;17465;47.934;33.430;2023-02-13T05:00:34;57471.29;;;-140.43;77.09
30714;BME280;17465;47.934;33.430;2023-02-13T05:03:08;57471.29;;;-140.43;77.09
30714;BME280;17465;47.934;33.430;2023-02-13T05:05:39;57486.12;;;-140.43;76.69
30714;BME280;17465;47.934;33.430;2023-02-13T05:08:10;57464.93;;;-140.43;77.66
30714;BME280;17465;47.934;33.430;2023-02-13T05:10:41;57464.93;;;-140.43;77.66
30714;BME280;17465;47.934;33.430;2023-02-13T05:13:12;57475.52;;;-140.43;75.03
30714;BME280;17465;47.934;33.430;2023-02-13T05:15:42;57478.70;;;-140.43;76.54
30714;BME280;17465;47.934;33.430;2023-02-13T05:18:13;57515.77;;;-140.43;75.50
30714;BME280;17465;47.934;33.430;2023-02-13T05:20:44;57464.93;;;-140.43;75.94
30714;BME280;17465;47.934;33.430;2023-02-13T05:23:15;57484.00;;;-140.43;75.55
30714;BME280;17465;47.934;33.430;2023-02-13T05:25:45;57449.05;;;-140.43;75.55
30714;BME280;17465;47.934;33.430;2023-02-13T05:28:16;57457.52;;;-140.43;75.25
30714;BME280;17465;47.934;33.430;2023-02-13T05:30:46;57491.41;;;-140.43;75.18
30714;BME280;17465;47.934;33.430;2023-02-13T05:33:18;57491.41;;;-140.43;75.18
30714;BME280;17465;47.934;33.430;2023-02-13T05:35:49;57481.88;;;-140.43;75.47
30714;BME280;17465;47.934;33.430;2023-02-13T05:38:20;57485.05;;;-140.43;74.91
30714;BME280;17465;47.934;33.430;2023-02-13T05:40:51;57438.46;;;-140.43;74.96
30714;BME280;17465;47.934;33.430;2023-02-13T05:43:25;57438.46;;;-140.43;74.96
30714;BME280;17465;47.934;33.430;2023-02-13T05:46:08;57472.35;;;-140.43;74.88
30714;BME280;17465;47.934;33.430;2023-02-13T05:48:40;57472.35;;;-140.43;74.88
30714;BME280;17465;47.934;33.430;2023-02-13T05:51:10;57479.76;;;-140.43;74.58
30714;BME280;17465;47.934;33.430;2023-02-13T05:53:41;57456.46;;;-140.43;74.61
30714;BME280;17465;47.934;33.430;2023-02-13T05:56:11;57447.99;;;-140.43;74.60
30714;BME280;17465;47.934;33.430;2023-02-13T05:58:42;57482.94;;;-140.43;74.38
30714;BME280;17465;47.934;33.430;2023-02-13T06:01:13;57464.93;;;-140.43;74.78
30714;BME280;17465;47.934;33.430;2023-02-13T06:03:47;57475.52;;;-140.43;73.99
30714;BME280;17465;47.934;33.430;2023-02-13T06:06:18;57464.93;;;-140.43;74.14
30714;BME280;17465;47.934;33.430;2023-02-13T06:09:12;57450.11;;;-140.43;73.49
30714;BME280;17465;47.934;33.430;2023-02-13T06:12:16;57455.40;;;-140.43;71.97
30714;BME280;17465;47.934;33.430;2023-02-13T06:14:47;57482.94;;;-140.43;72.70
30714;BME280;17465;47.934;33.430;2023-02-13T06:17:17;57468.11;;;-140.43;72.46
30714;BME280;17465;47.934;33.430;2023-02-13T06:19:48;57468.11;;;-140.43;72.46
30714;BME280;17465;47.934;33.430;2023-02-13T06:22:18;57432.10;;;-140.43;72.87
30714;BME280;17465;47.934;33.430;2023-02-13T06:24:49;57441.63;;;-140.43;72.38
30714;BME280;17465;47.934;33.430;2023-02-13T06:27:19;57438.46;;;-140.43;72.36
30714;BME280;17465;47.934;33.430;2023-02-13T06:29:50;57445.87;;;-140.43;72.40
30714;BME280;17465;47.934;33.430;2023-02-13T06:32:21;57437.39;;;-140.43;72.30
30714;BME280;17465;47.934;33.430;2023-02-13T06:34:51;57435.28;;;-140.43;71.58
30714;BME280;17465;47.934;33.430;2023-02-13T06:37:22;57435.28;;;-140.43;71.58
30714;BME280;17465;47.934;33.430;2023-02-13T06:39:52;57438.46;;;-140.43;70.50
30714;BME280;17465;47.934;33.430;2023-02-13T06:42:23;57435.28;;;-140.43;72.17
30714;BME280;17465;47.934;33.430;2023-02-13T06:44:54;57445.87;;;-140.43;72.33
30714;BME280;17465;47.934;33.430;2023-02-13T06:47:24;57440.57;;;-140.43;71.57
30714;BME280;17465;47.934;33.430;2023-02-13T06:49:55;57459.64;;;-140.43;71.97
30714;BME280;17465;47.934;33.430;2023-02-13T06:52:26;57418.33;;;-140.43;70.58
30714;BME280;17465;47.934;33.430;2023-02-13T06:54:57;57461.76;;;-140.43;70.02
30714;BME280;17465;47.934;33.430;2023-02-13T06:57:29;57443.75;;;-140.43;69.86
30714;BME280;17465;47.934;33.430;2023-02-13T07:00:00;57416.21;;;-140.43;69.47
30714;BME280;17465;47.934;33.430;2023-02-13T07:02:32;57424.69;;;-140.43;69.42
30714;BME280;17465;47.934;33.430;2023-02-13T07:05:02;57424.69;;;-140.43;69.42
30714;BME280;17465;47.934;33.430;2023-02-13T07:07:35;57419.39;;;-140.43;69.00
30714;BME280;17465;47.934;33.430;2023-02-13T07:10:10;57393.98;;;-140.43;69.34
30714;BME280;17465;47.934;33.430;2023-02-13T07:12:41;57422.57;;;-140.43;68.99
30714;BME280;17465;47.934;33.430;2023-02-13T07:15:16;57435.28;;;-140.43;69.30
30714;BME280;17465;47.934;33.430;2023-02-13T07:17:48;57416.21;;;-140.43;68.67
30714;BME280;17465;47.934;33.430;2023-02-13T07:20:25;57462.82;;;-140.43;68.86
30714;BME280;17465;47.934;33.430;2023-02-13T07:23:03;57413.04;;;-140.43;67.67
30714;BME280;17465;47.934;33.430;2023-02-13T07:25:34;57429.98;;;-140.43;66.70
30714;BME280;17465;47.934;33.430;2023-02-13T07:28:05;57429.98;;;-140.43;66.70
30714;BME280;17465;47.934;33.430;2023-02-13T07:30:36;57391.86;;;-140.43;65.05
30714;BME280;17465;47.934;33.430;2023-02-13T07:33:08;57405.62;;;-140.43;63.38
30714;BME280;17465;47.934;33.430;2023-02-13T07:35:45;57383.38;;;-140.43;64.59
30714;BME280;17465;47.934;33.430;2023-02-13T07:38:17;57369.62;;;-140.43;63.62
30714;BME280;17465;47.934;33.430;2023-02-13T07:40:48;57388.68;;;-140.43;62.66
30714;BME280;17465;47.934;33.430;2023-02-13T07:43:19;57384.44;;;-140.43;61.49
30714;BME280;17465;47.934;33.430;2023-02-13T07:45:51;57378.09;;;-140.43;61.70
30714;BME280;17465;47.934;33.430;2023-02-13T07:48:28;57390.80;;;-140.43;62.21
30714;BME280;17465;47.934;33.430;2023-02-13T07:51:03;57370.68;;;-140.43;62.68
30714;BME280;17465;47.934;33.430;2023-02-13T07:53:35;57377.03;;;-140.43;60.16
30714;BME280;17465;47.934;33.430;2023-02-13T07:56:10;57377.03;;;-140.43;60.16
30714;BME280;17465;47.934;33.430;2023-02-13T07:58:38;57380.21;;;-140.43;60.53
30714;BME280;17465;47.934;33.430;2023-02-13T08:01:10;57380.21;;;-140.43;60.53
30714;BME280;17465;47.934;33.430;2023-02-13T08:03:41;57400.33;;;-140.43;59.92
30714;BME280;17465;47.934;33.430;2023-02-13T08:06:14;57385.50;;;-140.43;61.91
30714;BME280;17465;47.934;33.430;2023-02-13T08:08:51;57385.50;;;-140.43;61.91
30714;BME280;17465;47.934;33.430;2023-02-13T08:11:30;57372.79;;;-140.43;62.37
30714;BME280;17465;47.934;33.430;2023-02-13T08:14:00;57357.96;;;-140.43;61.79
30714;BME280;17465;47.934;33.430;2023-02-13T08:16:47;57356.91;;;-140.43;61.99
30714;BME280;17465;47.934;33.430;2023-02-13T08:19:22;57356.91;;;-140.43;61.99
30714;BME280;17465;47.934;33.430;2023-02-13T08:21:57;57342.08;;;-140.43;60.22
30714;BME280;17465;47.934;33.430;2023-02-13T08:24:31;57380.21;;;-140.43;60.60
30714;BME280;17465;47.934;33.430;2023-02-13T08:27:04;57377.03;;;-140.43;61.10
30714;BME280;17465;47.934;33.430;2023-02-13T08:29:38;57359.03;;;-140.43;60.62
30714;BME280;17465;47.934;33.430;2023-02-13T08:32:20;57381.27;;;-140.43;59.68
30714;BME280;17465;47.934;33.430;2023-02-13T08:34:59;57369.62;;;-140.43;58.46
30714;BME280;17465;47.934;33.430;2023-02-13T08:37:36;57369.62;;;-140.43;58.46
30714;BME280;17465;47.934;33.430;2023-02-13T08:40:10;57369.62;;;-140.43;60.47
30714;BME280;17465;47.934;33.430;2023-02-13T08:42:47;57370.68;;;-140.43;58.95
30714;BME280;17465;47.934;33.430;2023-02-13T08:45:19;57370.68;;;-140.43;58.95
30714;BME280;17465;47.934;33.430;2023-02-13T08:47:54;57367.50;;;-140.43;60.02
30714;BME280;17465;47.934;33.430;2023-02-13T08:50:24;57367.50;;;-140.43;60.02
30714;BME280;17465;47.934;33.430;2023-02-13T08:52:57;57384.44;;;-140.43;57.26
30714;BME280;17465;47.934;33.430;2023-02-13T08:55:30;57349.49;;;-140.43;56.29
30714;BME280;17465;47.934;33.430;2023-02-13T08:58:02;57374.91;;;-140.43;55.85
30714;BME280;17465;47.934;33.430;2023-02-13T09:00:35;57359.03;;;-140.43;56.06
30714;BME280;17465;47.934;33.430;2023-02-13T09:03:13;57359.03;;;-140.43;56.06
30714;BME280;17465;47.934;33.430;2023-02-13T09:05:45;57354.79;;;-140.43;56.08
30714;BME280;17465;47.934;33.430;2023-02-13T09:08:18;57343.14;;;-140.43;53.53
30714;BME280;17465;47.934;33.430;2023-02-13T09:13:37;57347.38;;;-140.43;52.88
30714;BME280;17465;47.934;33.430;2023-02-13T09:16:10;57359.03;;;-140.43;51.22
30714;BME280;17465;47.934;33.430;2023-02-13T09:18:52;57353.73;;;-140.43;49.92
30714;BME280;17465;47.934;33.430;2023-02-13T09:24:15;57332.55;;;-140.43;50.64
30714;BME280;17465;47.934;33.430;2023-02-13T09:26:55;57372.79;;;-140.43;50.55
30714;BME280;17465;47.934;33.430;2023-02-13T09:29:26;57372.79;;;-140.43;50.55
30714;BME280;17465;47.934;33.430;2023-02-13T09:31:57;57346.32;;;-140.43;50.80
30714;BME280;17465;47.934;33.430;2023-02-13T09:34:28;57334.67;;;-140.43;51.60
30714;BME280;17465;47.934;33.430;2023-02-13T09:36:59;57339.96;;;-140.43;48.97
30714;BME280;17465;47.934;33.430;2023-02-13T09:39:34;57326.20;;;-140.43;47.52
30714;BME280;17465;47.934;33.430;2023-02-13T09:44:49;57311.37;;;-140.43;46.04
30714;BME280;17465;47.934;33.430;2023-02-13T09:47:33;57311.37;;;-140.43;46.04
30714;BME280;17465;47.934;33.430;2023-02-13T09:53:08;57334.67;;;-140.43;46.34
30714;BME280;17465;47.934;33.430;2023-02-13T09:55:59;57359.03;;;-140.43;41.33
30714;BME280;17465;47.934;33.430;2023-02-13T10:04:00;57328.31;;;-140.43;41.37
30714;BME280;17465;47.934;33.430;2023-02-13T10:06:38;57329.37;;;-140.43;43.08
30714;BME280;17465;47.934;33.430;2023-02-13T10:18:12;57335.73;;;-140.43;40.35
30714;BME280;17465;47.934;33.430;2023-02-13T10:20:46;57350.55;;;-140.43;40.45
30714;BME280;17465;47.934;33.430;2023-02-13T10:26:34;57332.55;;;-140.43;42.06
30714;BME280;17465;47.934;33.430;2023-02-13T10:29:14;57341.02;;;-140.43;42.60
30714;BME280;17465;47.934;33.430;2023-02-13T10:31:56;56499.17;;;-140.43;42.81
30714;BME280;17465;47.934;33.430;2023-02-13T10:37:22;57334.67;;;-140.43;42.59
30714;BME280;17465;47.934;33.430;2023-02-13T10:39:56;57337.84;;;-140.43;44.11
30714;BME280;17465;47.934;33.430;2023-02-13T10:51:00;57332.55;;;-140.43;44.59
30714;BME280;17465;47.934;33.430;2023-02-13T11:02:22;57338.90;;;-140.43;45.04
30714;BME280;17465;47.934;33.430;2023-02-13T11:05:41;57338.90;;;-140.43;45.04
30714;BME280;17465;47.934;33.430;2023-02-13T11:07:31;57323.02;;;-140.43;44.38
30714;BME280;17465;47.934;33.430;2023-02-13T11:10:23;57332.55;;;-140.43;44.91
30714;BME280;17465;47.934;33.430;2023-02-13T11:13:18;57316.66;;;-140.43;44.00
30714;BME280;17465;47.934;33.430;2023-02-13T11:16:16;57316.66;;;-140.43;44.00
30714;BME280;17465;47.934;33.430;2023-02-13T11:18:49;57315.61;;;-140.43;43.21
30714;BME280;17465;47.934;33.430;2023-02-13T11:21:32;57321.96;;;-140.43;42.70
30714;BME280;17465;47.934;33.430;2023-02-13T11:24:07;57331.49;;;-140.43;40.99
30714;BME280;17465;47.934;33.430;2023-02-13T11:26:40;57319.84;;;-140.43;40.37
30714;BME280;17465;47.934;33.430;2023-02-13T11:34:49;57338.90;;;-140.43;39.75
30714;BME280;17465;47.934;33.430;2023-02-13T11:37:25;57338.90;;;-140.43;39.75
30714;BME280;17465;47.934;33.430;2023-02-13T11:40:03;57330.43;;;-140.43;40.48
30714;BME280;17465;47.934;33.430;2023-02-13T11:42:37;57330.43;;;-140.43;40.48
30714;BME280;17465;47.934;33.430;2023-02-13T11:45:22;57332.55;;;-140.43;41.00
30714;BME280;17465;47.934;33.430;2023-02-13T11:47:57;57349.49;;;-140.43;41.58
30714;BME280;17465;47.934;33.430;2023-02-13T11:50:36;57346.32;;;-140.43;41.89
30714;BME280;17465;47.934;33.430;2023-02-13T11:53:20;57313.48;;;-140.43;40.82
30714;BME280;17465;47.934;33.430;2023-02-13T11:58:45;57336.79;;;-140.43;38.39
30714;BME280;17465;47.934;33.430;2023-02-13T12:01:35;57336.79;;;-140.43;38.39
30714;BME280;17465;47.934;33.430;2023-02-13T12:04:19;57336.79;;;-140.43;39.12
30714;BME280;17465;47.934;33.430;2023-02-13T12:06:59;57335.73;;;-140.43;40.78
30714;BME280;17465;47.934;33.430;2023-02-13T12:09:31;57342.08;;;-140.43;41.16
30714;BME280;17465;47.934;33.430;2023-02-13T12:12:03;57342.08;;;-140.43;41.16
30714;BME280;17465;47.934;33.430;2023-02-13T12:14:44;57331.49;;;-140.43;40.94
30714;BME280;17465;47.934;33.430;2023-02-13T12:17:20;57332.55;;;-140.43;40.56
30714;BME280;17465;47.934;33.430;2023-02-13T12:19:53;57334.67;;;-140.43;40.24
30714;BME280;17465;47.934;33.430;2023-02-13T12:22:29;57359.03;;;-140.43;40.81
30714;BME280;17465;47.934;33.430;2023-02-13T12:31:00;57335.73;;;-140.43;39.34
30714;BME280;17465;47.934;33.430;2023-02-13T12:33:42;57321.96;;;-140.43;37.52
30714;BME280;17465;47.934;33.430;2023-02-13T12:36:15;57336.79;;;-140.43;37.95
30714;BME280;17465;47.934;33.430;2023-02-13T12:39:15;57300.78;;;-140.43;37.22
30714;BME280;17465;47.934;33.430;2023-02-13T12:47:16;57325.14;;;-140.43;38.21
30714;BME280;17465;47.934;33.430;2023-02-13T12:52:57;57334.67;;;-140.43;39.10
30714;BME280;17465;47.934;33.430;2023-02-13T12:55:43;57312.43;;;-140.43;40.54
30714;BME280;17465;47.934;33.430;2023-02-13T13:04:58;57356.91;;;-140.43;38.36
30714;BME280;17465;47.934;33.430;2023-02-13T13:13:34;57354.79;;;-140.43;39.18
30714;BME280;17465;47.934;33.430;2023-02-13T13:16:32;57335.73;;;-140.43;39.12
30714;BME280;17465;47.934;33.430;2023-02-13T13:19:18;57335.73;;;-140.43;38.74
30714;BME280;17465;47.934;33.430;2023-02-13T13:27:26;57321.96;;;-140.43;39.14
30714;BME280;17465;47.934;33.430;2023-02-13T13:30:18;57353.73;;;-140.43;39.04
30714;BME280;17465;47.934;33.430;2023-02-13T13:33:14;57359.03;;;-140.43;40.10
30714;BME280;17465;47.934;33.430;2023-02-13T13:35:44;57368.55;;;-140.43;39.91
30714;BME280;17465;47.934;33.430;2023-02-13T13:41:29;57357.96;;;-140.43;41.06
30714;BME280;17465;47.934;33.430;2023-02-13T13:49:45;57351.61;;;-140.43;39.87
30714;BME280;17465;47.934;33.430;2023-02-13T13:52:26;57351.61;;;-140.43;39.87
30714;BME280;17465;47.934;33.430;2023-02-13T13:55:03;57341.02;;;-140.43;39.50
30714;BME280;17465;47.934;33.430;2023-02-13T14:03:35;57373.85;;;-140.43;40.28
30714;BME280;17465;47.934;33.430;2023-02-13T14:05:34;57369.62;;;-140.43;40.75
30714;BME280;17465;47.934;33.430;2023-02-13T14:11:04;57338.90;;;-140.43;40.18
30714;BME280;17465;47.934;33.430;2023-02-13T14:13:38;57343.14;;;-140.43;40.23
30714;BME280;17465;47.934;33.430;2023-02-13T14:19:01;57348.43;;;-140.43;40.34
30714;BME280;17465;47.934;33.430;2023-02-13T14:21:32;57336.79;;;-140.43;41.08
30714;BME280;17465;47.934;33.430;2023-02-13T14:24:04;57360.08;;;-140.43;41.20
30714;BME280;17465;47.934;33.430;2023-02-13T14:26:40;57360.08;;;-140.43;41.20
30714;BME280;17465;47.934;33.430;2023-02-13T14:29:19;57348.43;;;-140.43;41.84
30714;BME280;17465;47.934;33.430;2023-02-13T14:31:58;57348.43;;;-140.43;41.84
30714;BME280;17465;47.934;33.430;2023-02-13T14:34:34;57373.85;;;-140.43;42.08
30714;BME280;17465;47.934;33.430;2023-02-13T14:37:21;57346.32;;;-140.43;42.36
30714;BME280;17465;47.934;33.430;2023-02-13T14:40:12;57371.73;;;-140.43;42.82
30714;BME280;17465;47.934;33.430;2023-02-13T14:43:15;57371.73;;;-140.43;42.82
30714;BME280;17465;47.934;33.430;2023-02-13T14:51:28;57382.32;;;-140.43;43.25
30714;BME280;17465;47.934;33.430;2023-02-13T14:54:01;57353.73;;;-140.43;43.94
30714;BME280;17465;47.934;33.430;2023-02-13T14:56:32;57361.14;;;-140.43;43.42
30714;BME280;17465;47.934;33.430;2023-02-13T14:59:28;57359.03;;;-140.43;42.90
30714;BME280;17465;47.934;33.430;2023-02-13T15:01:59;57359.03;;;-140.43;42.90
30714;BME280;17465;47.934;33.430;2023-02-13T15:04:46;57334.67;;;-140.43;43.35
30714;BME280;17465;47.934;33.430;2023-02-13T15:07:32;57357.96;;;-140.43;43.05
30714;BME280;17465;47.934;33.430;2023-02-13T16:08:59;57333.61;;;-140.43;44.86
30714;BME280;17465;47.934;33.430;2023-02-13T16:11:59;57355.85;;;-140.43;44.69
30714;BME280;17465;47.934;33.430;2023-02-13T16:14:43;57370.68;;;-140.43;44.67
30714;BME280;17465;47.934;33.430;2023-02-13T16:20:16;57346.32;;;-140.43;45.04
30714;BME280;17465;47.934;33.430;2023-02-13T16:22:48;57368.55;;;-140.43;44.55
30714;BME280;17465;47.934;33.430;2023-02-13T16:28:19;57370.68;;;-140.43;44.33
30714;BME280;17465;47.934;33.430;2023-02-13T16:31:11;57329.37;;;-140.43;43.91
30714;BME280;17465;47.934;33.430;2023-02-13T16:33:46;57368.55;;;-140.43;43.84
30714;BME280;17465;47.934;33.430;2023-02-13T16:39:19;57365.38;;;-140.43;44.19
30714;BME280;17465;47.934;33.430;2023-02-13T16:41:50;57338.90;;;-140.43;44.55
30714;BME280;17465;47.934;33.430;2023-02-13T16:44:32;57359.03;;;-140.43;44.69
30714;BME280;17465;47.934;33.430;2023-02-13T16:47:04;57384.44;;;-140.43;45.24
30714;BME280;17465;47.934;33.430;2023-02-13T16:49:37;57338.90;;;-140.43;44.85
30714;BME280;17465;47.934;33.430;2023-02-13T16:52:22;57369.62;;;-140.43;45.65
30714;BME280;17465;47.934;33.430;2023-02-13T16:55:00;57352.67;;;-140.43;45.29
30714;BME280;17465;47.934;33.430;2023-02-13T16:57:34;57352.67;;;-140.43;45.29
30714;BME280;17465;47.934;33.430;2023-02-13T17:00:21;57365.38;;;-140.43;45.92